Time;durP1;ratioP1;P1;durP2;ratioP2;P2;SDS_P1;SDS_P2;PMS_P1;PMS_P2;Temp;Humidity;BMP_temperature;BMP_pressure;BME280_temperature;BME280_humidity;BME280_pressure;Samples;Min_cycle;Max_cycle;Signal;HPM_P1;HPM_P2
2022/03/11 00:01:30;;;;;;;6.95;3.75;;;;;;;;;;5023676;28;21430;-78
2022/03/11 00:03:56;;;;;;;5.85;4.32;;;;;;;;;;5026710;28;20049;-77
2022/03/11 00:06:22;;;;;;;5.60;3.53;;;;;;;;;;5028780;28;20136;-77
2022/03/11 00:08:49;;;;;;;8.48;4.00;;;;;;;;;;5026583;28;20064;-77
2022/03/11 00:11:16;;;;;;;8.77;4.32;;;;;;;;;;5029204;28;20052;-77
2022/03/11 00:13:42;;;;;;;9.63;3.13;;;;;;;;;;5029628;28;20128;-75
2022/03/11 00:16:08;;;;;;;3.92;3.50;;;;;;;;;;5029224;28;20096;-76
2022/03/11 00:18:34;;;;;;;6.15;3.70;;;;;;;;;;5028376;28;20045;-77
2022/03/11 00:21:00;;;;;;;5.82;4.10;;;;;;;;;;5029403;28;20091;-75
2022/03/11 00:23:26;;;;;;;6.75;5.10;;;;;;;;;;5029710;28;20583;-77
2022/03/11 00:25:51;;;;;;;5.15;3.92;;;;;;;;;;5029219;28;20121;-77
2022/03/11 00:28:17;;;;;;;4.78;3.60;;;;;;;;;;5011005;28;20105;-76
2022/03/11 00:30:43;;;;;;;6.03;4.13;;;;;;;;;;5011498;28;20037;-76
2022/03/11 00:33:09;;;;;;;4.75;2.97;;;;;;;;;;5011022;28;20542;-77
2022/03/11 00:35:35;;;;;;;4.82;3.60;;;;;;;;;;5029753;28;20049;-76
2022/03/11 00:38:01;;;;;;;9.77;4.03;;;;;;;;;;5029320;28;20068;-75
2022/03/11 00:40:27;;;;;;;6.53;4.07;;;;;;;;;;5029241;28;20053;-76
2022/03/11 00:42:53;;;;;;;10.93;4.20;;;;;;;;;;5017783;28;20048;-76
2022/03/11 00:45:19;;;;;;;6.75;5.18;;;;;;;;;;5014781;28;20046;-76
2022/03/11 00:47:45;;;;;;;6.25;4.35;;;;;;;;;;5014916;28;20100;-76
2022/03/11 00:50:11;;;;;;;11.35;4.55;;;;;;;;;;5033789;28;20156;-75
2022/03/11 00:52:37;;;;;;;7.72;6.30;;;;;;;;;;5033497;28;20052;-76
2022/03/11 00:55:03;;;;;;;10.20;5.82;;;;;;;;;;5015332;28;20049;-76
2022/03/11 00:57:29;;;;;;;6.10;5.00;;;;;;;;;;5028635;28;20049;-76
2022/03/11 00:59:54;;;;;;;5.50;4.82;;;;;;;;;;5011579;28;20042;-75
2022/03/11 01:02:20;;;;;;;11.45;6.50;;;;;;;;;;4994834;28;20045;-74
2022/03/11 01:04:49;;;;;;;9.48;6.40;;;;;;;;;;5012500;28;20045;-74
2022/03/11 01:07:15;;;;;;;4.60;3.17;;;;;;;;;;5010933;28;20034;-74
2022/03/11 01:09:41;;;;;;;11.68;4.85;;;;;;;;;;5012396;28;20062;-74
2022/03/11 01:12:07;;;;;;;14.70;3.83;;;;;;;;;;5011986;28;20038;-74
2022/03/11 01:14:32;;;;;;;4.25;3.45;;;;;;;;;;5011181;28;20069;-74
2022/03/11 01:16:58;;;;;;;4.50;3.45;;;;;;;;;;5012028;28;20551;-74
2022/03/11 01:19:24;;;;;;;11.27;5.53;;;;;;;;;;4994884;28;20041;-74
2022/03/11 01:21:50;;;;;;;6.88;5.65;;;;;;;;;;5010881;28;20100;-74
2022/03/11 01:24:16;;;;;;;7.68;6.45;;;;;;;;;;4994336;28;20041;-73
2022/03/11 01:26:42;;;;;;;16.88;6.82;;;;;;;;;;5011929;28;20042;-74
2022/03/11 01:29:08;;;;;;;11.77;5.63;;;;;;;;;;5011833;28;20556;-74
2022/03/11 01:31:36;;;;;;;10.25;5.55;;;;;;;;;;5011992;28;20038;-74
2022/03/11 01:34:01;;;;;;;4.80;4.05;;;;;;;;;;5030872;28;20211;-74
2022/03/11 01:36:27;;;;;;;8.90;5.22;;;;;;;;;;5014179;28;20049;-73
2022/03/11 01:38:54;;;;;;;9.07;4.70;;;;;;;;;;5031827;28;20046;-74
2022/03/11 01:41:20;;;;;;;4.30;3.90;;;;;;;;;;5031528;28;20041;-74
2022/03/11 01:43:49;;;;;;;4.88;4.47;;;;;;;;;;5031631;28;20417;-74
2022/03/11 01:46:15;;;;;;;6.43;4.57;;;;;;;;;;5031231;28;20560;-74
2022/03/11 01:48:41;;;;;;;10.02;3.33;;;;;;;;;;5031628;28;20053;-74
2022/03/11 01:51:07;;;;;;;4.50;3.33;;;;;;;;;;5031135;28;20045;-74
2022/03/11 01:53:33;;;;;;;3.78;3.45;;;;;;;;;;5031310;28;20037;-74
2022/03/11 01:55:59;;;;;;;3.15;2.90;;;;;;;;;;5031022;28;20047;-73
2022/03/11 01:58:24;;;;;;;4.18;3.85;;;;;;;;;;5030857;28;20048;-74
2022/03/11 02:00:50;;;;;;;3.97;3.67;;;;;;;;;;5031232;28;20532;-74
2022/03/11 02:03:16;;;;;;;7.00;3.85;;;;;;;;;;5030649;28;20058;-74
2022/03/11 02:05:43;;;;;;;5.28;4.18;;;;;;;;;;5031278;28;20121;-75
2022/03/11 02:08:09;;;;;;;5.28;4.18;;;;;;;;;;5029383;28;20088;-74
2022/03/11 02:10:35;;;;;;;5.40;4.28;;;;;;;;;;5030835;28;20128;-74
2022/03/11 02:13:05;;;;;;;4.18;3.78;;;;;;;;;;5030976;28;20145;-73
2022/03/11 02:15:31;;;;;;;4.38;3.97;;;;;;;;;;5013378;28;20717;-74
2022/03/11 02:17:58;;;;;;;7.63;4.30;;;;;;;;;;5013667;28;20049;-74
2022/03/11 02:20:24;;;;;;;7.40;4.95;;;;;;;;;;5031326;28;20103;-73
2022/03/11 02:22:52;;;;;;;4.20;3.90;;;;;;;;;;5031493;28;20041;-74
2022/03/11 02:25:18;;;;;;;10.25;3.13;;;;;;;;;;5030701;28;20509;-74
2022/03/11 02:27:46;;;;;;;4.32;3.90;;;;;;;;;;5029576;28;20042;-74
2022/03/11 02:30:13;;;;;;;12.38;4.28;;;;;;;;;;5030387;28;20053;-74
2022/03/11 02:32:39;;;;;;;4.30;3.63;;;;;;;;;;5030698;28;20037;-74
2022/03/11 02:35:06;;;;;;;6.03;4.03;;;;;;;;;;5030327;28;20528;-74
2022/03/11 02:37:32;;;;;;;3.65;3.30;;;;;;;;;;5030251;28;20037;-74
2022/03/11 02:39:58;;;;;;;4.40;4.00;;;;;;;;;;5012391;28;20595;-74
2022/03/11 02:42:24;;;;;;;7.00;3.70;;;;;;;;;;5028985;28;20046;-74
2022/03/11 02:44:50;;;;;;;12.00;3.55;;;;;;;;;;5028976;28;20041;-74
2022/03/11 02:47:15;;;;;;;5.35;3.58;;;;;;;;;;5029981;28;20132;-73
2022/03/11 02:49:41;;;;;;;4.95;3.90;;;;;;;;;;5028959;28;20057;-74
2022/03/11 02:52:07;;;;;;;6.32;3.53;;;;;;;;;;5028681;28;20045;-74
2022/03/11 02:54:34;;;;;;;3.97;3.67;;;;;;;;;;5029040;28;20403;-74
2022/03/11 02:57:00;;;;;;;9.57;3.55;;;;;;;;;;5012484;28;20536;-74
2022/03/11 02:59:26;;;;;;;8.02;3.85;;;;;;;;;;5029872;28;20424;-75
2022/03/11 03:01:52;;;;;;;13.52;4.63;;;;;;;;;;5029783;28;20128;-75
2022/03/11 03:04:18;;;;;;;8.73;3.83;;;;;;;;;;5026214;28;20042;-74
2022/03/11 03:06:44;;;;;;;5.75;4.40;;;;;;;;;;5015829;28;20065;-74
2022/03/11 03:09:10;;;;;;;9.43;4.47;;;;;;;;;;5032748;28;20150;-75
2022/03/11 03:11:37;;;;;;;12.32;4.47;;;;;;;;;;5024582;28;20083;-74
2022/03/11 03:14:03;;;;;;;15.35;6.03;;;;;;;;;;5011612;28;20065;-74
2022/03/11 03:16:29;;;;;;;8.13;4.50;;;;;;;;;;5028970;28;20480;-74
2022/03/11 03:18:55;;;;;;;16.35;5.75;;;;;;;;;;5028899;28;20037;-73
2022/03/11 03:21:21;;;;;;;10.23;4.45;;;;;;;;;;5027453;28;20045;-73
2022/03/11 03:23:47;;;;;;;5.15;4.07;;;;;;;;;;5029002;28;20046;-73
2022/03/11 03:26:13;;;;;;;10.20;4.65;;;;;;;;;;5028748;28;20040;-74
2022/03/11 03:28:39;;;;;;;15.25;4.72;;;;;;;;;;5028779;28;20041;-74
2022/03/11 03:31:04;;;;;;;5.40;4.50;;;;;;;;;;5028134;28;20410;-73
2022/03/11 03:33:31;;;;;;;4.25;3.85;;;;;;;;;;5022689;28;20048;-73
2022/03/11 03:35:57;;;;;;;9.25;4.07;;;;;;;;;;5023762;28;20041;-73
2022/03/11 03:38:23;;;;;;;13.60;3.70;;;;;;;;;;5026014;28;20045;-73
2022/03/11 03:40:49;;;;;;;9.15;4.25;;;;;;;;;;5011276;28;20509;-73
2022/03/11 03:43:15;;;;;;;6.22;4.00;;;;;;;;;;5027361;28;20219;-73
2022/03/11 03:45:41;;;;;;;6.47;4.10;;;;;;;;;;5028761;28;20053;-73
2022/03/11 03:48:07;;;;;;;4.53;3.90;;;;;;;;;;5016029;28;20402;-74
2022/03/11 03:50:33;;;;;;;6.38;3.83;;;;;;;;;;5017192;28;20049;-73
2022/03/11 03:52:58;;;;;;;5.03;4.47;;;;;;;;;;5028332;28;20509;-73
2022/03/11 03:55:24;;;;;;;7.13;3.88;;;;;;;;;;5028502;28;20057;-73
2022/03/11 03:57:50;;;;;;;3.30;3.10;;;;;;;;;;5025616;28;20065;-73
2022/03/11 04:00:16;;;;;;;13.55;4.90;;;;;;;;;;5018639;28;20050;-73
2022/03/11 04:02:46;;;;;;;1.10;1.10;;;;;;;;;;5031650;28;20045;-74
2022/03/11 04:05:13;;;;;;;22.05;4.68;;;;;;;;;;5032964;28;20061;-74
2022/03/11 04:07:42;;;;;;;13.27;4.40;;;;;;;;;;5019053;28;20060;-74
2022/03/11 04:10:08;;;;;;;14.07;5.40;;;;;;;;;;5037074;28;20076;-74
2022/03/11 04:12:34;;;;;;;8.80;4.90;;;;;;;;;;5031031;28;20088;-74
2022/03/11 04:15:00;;;;;;;7.15;3.70;;;;;;;;;;5030026;28;20041;-76
2022/03/11 04:17:26;;;;;;;7.40;3.40;;;;;;;;;;5030988;28;20033;-75
2022/03/11 04:19:52;;;;;;;5.25;4.00;;;;;;;;;;5038700;28;20073;-74
2022/03/11 04:22:18;;;;;;;12.63;4.22;;;;;;;;;;5037400;28;20037;-75
2022/03/11 04:24:44;;;;;;;5.18;4.63;;;;;;;;;;5036380;28;20045;-74
2022/03/11 04:27:11;;;;;;;6.57;4.25;;;;;;;;;;5015107;28;20043;-75
2022/03/11 04:29:37;;;;;;;9.55;4.38;;;;;;;;;;5013677;28;20669;-75
2022/03/11 04:32:03;;;;;;;10.50;3.88;;;;;;;;;;5013566;28;20048;-74
2022/03/11 04:34:29;;;;;;;11.27;4.05;;;;;;;;;;5032681;28;20049;-74
2022/03/11 04:36:56;;;;;;;7.88;4.32;;;;;;;;;;5031491;28;20045;-74
2022/03/11 04:39:24;;;;;;;9.63;4.88;;;;;;;;;;5032749;28;20049;-74
2022/03/11 04:41:50;;;;;;;6.65;4.22;;;;;;;;;;5035741;28;20071;-75
2022/03/11 04:44:16;;;;;;;5.13;4.30;;;;;;;;;;5030310;28;20124;-75
2022/03/11 04:46:42;;;;;;;4.68;3.75;;;;;;;;;;5019062;28;20037;-74
2022/03/11 04:49:08;;;;;;;3.13;2.75;;;;;;;;;;5017742;28;20053;-74
2022/03/11 04:51:34;;;;;;;6.18;4.57;;;;;;;;;;5012398;28;20044;-75
2022/03/11 04:54:00;;;;;;;5.97;5.45;;;;;;;;;;5030345;28;20045;-75
2022/03/11 04:56:26;;;;;;;10.90;5.65;;;;;;;;;;5030420;28;20512;-74
2022/03/11 04:58:52;;;;;;;9.23;6.20;;;;;;;;;;5013673;28;20041;-75
2022/03/11 05:01:17;;;;;;;11.05;6.63;;;;;;;;;;5016617;28;20053;-75
2022/03/11 05:03:43;;;;;;;15.60;8.65;;;;;;;;;;5011269;28;20081;-74
2022/03/11 05:06:09;;;;;;;11.07;6.65;;;;;;;;;;5012324;28;20085;-74
2022/03/11 05:08:35;;;;;;;13.35;6.75;;;;;;;;;;5012025;28;20056;-74
2022/03/11 05:11:01;;;;;;;19.52;9.70;;;;;;;;;;5007545;28;20045;-74
2022/03/11 05:13:27;;;;;;;11.38;6.20;;;;;;;;;;5013996;28;20116;-74
2022/03/11 05:15:53;;;;;;;23.33;9.93;;;;;;;;;;5014226;28;20124;-74
2022/03/11 05:18:19;;;;;;;21.55;11.10;;;;;;;;;;5031865;28;20088;-74
2022/03/11 05:20:45;;;;;;;20.90;9.18;;;;;;;;;;5032342;28;20045;-75
2022/03/11 05:23:12;;;;;;;20.48;10.40;;;;;;;;;;5014144;28;20413;-74
2022/03/11 05:25:38;;;;;;;6.88;5.15;;;;;;;;;;5031989;28;20048;-75
2022/03/11 05:28:04;;;;;;;12.70;8.00;;;;;;;;;;5013780;28;20041;-77
2022/03/11 05:30:30;;;;;;;19.00;8.65;;;;;;;;;;5030892;28;20439;-75
2022/03/11 05:32:55;;;;;;;9.68;6.72;;;;;;;;;;5031777;28;20509;-75
2022/03/11 05:35:21;;;;;;;8.07;6.15;;;;;;;;;;5031403;28;20056;-74
2022/03/11 05:37:47;;;;;;;13.75;6.82;;;;;;;;;;5031174;28;20573;-74
2022/03/11 05:40:13;;;;;;;14.52;8.75;;;;;;;;;;5031627;28;20157;-74
2022/03/11 05:42:41;;;;;;;13.20;7.93;;;;;;;;;;5031467;28;20413;-73
2022/03/11 05:45:07;;;;;;;11.10;7.13;;;;;;;;;;5031402;28;20579;-71
2022/03/11 05:47:33;;;;;;;8.45;6.22;;;;;;;;;;5029867;28;20045;-72
2022/03/11 05:49:59;;;;;;;8.65;6.25;;;;;;;;;;5029138;28;20188;-70
2022/03/11 05:52:25;;;;;;;14.68;7.50;;;;;;;;;;5007051;28;20148;-71
2022/03/11 05:54:53;;;;;;;18.17;8.02;;;;;;;;;;5014654;28;20530;-71
2022/03/11 05:57:19;;;;;;;16.02;7.40;;;;;;;;;;5039613;28;20076;-71
2022/03/11 05:59:44;;;;;;;18.88;9.13;;;;;;;;;;5051142;28;20076;-70
2022/03/11 06:02:10;;;;;;;16.20;9.15;;;;;;;;;;5043393;28;20045;-73
2022/03/11 06:04:38;;;;;;;16.50;8.70;;;;;;;;;;5050965;28;20044;-74
2022/03/11 06:07:04;;;;;;;20.67;7.50;;;;;;;;;;5031059;28;20104;-71
2022/03/11 06:09:30;;;;;;;16.83;7.65;;;;;;;;;;5029302;28;20058;-72
2022/03/11 06:11:56;;;;;;;16.20;9.48;;;;;;;;;;5020583;28;20048;-72
2022/03/11 06:14:22;;;;;;;22.65;10.05;;;;;;;;;;5016498;28;20073;-72
2022/03/11 06:16:48;;;;;;;17.80;9.50;;;;;;;;;;5031038;28;20139;-72
2022/03/11 06:19:14;;;;;;;15.68;9.02;;;;;;;;;;5028617;28;20037;-71
2022/03/11 06:21:40;;;;;;;19.10;10.32;;;;;;;;;;5026528;28;20041;-71
2022/03/11 06:24:09;;;;;;;12.50;8.70;;;;;;;;;;5027893;28;20120;-71
2022/03/11 06:26:35;;;;;;;18.85;8.68;;;;;;;;;;5009782;28;20480;-72
2022/03/11 06:29:01;;;;;;;18.73;8.55;;;;;;;;;;5027743;28;20045;-71
2022/03/11 06:31:27;;;;;;;15.43;9.75;;;;;;;;;;5027845;28;20615;-72
2022/03/11 06:33:54;;;;;;;16.58;9.30;;;;;;;;;;5028762;28;20469;-72
2022/03/11 06:36:20;;;;;;;20.75;8.82;;;;;;;;;;5010488;28;20986;-71
2022/03/11 06:38:46;;;;;;;24.45;9.88;;;;;;;;;;5027299;28;20037;-71
2022/03/11 06:41:12;;;;;;;12.05;8.65;;;;;;;;;;5024300;28;20053;-71
2022/03/11 06:43:38;;;;;;;16.08;8.95;;;;;;;;;;5028007;28;20072;-71
2022/03/11 06:46:05;;;;;;;25.25;9.27;;;;;;;;;;5028309;28;20511;-71
2022/03/11 06:48:31;;;;;;;14.25;6.95;;;;;;;;;;5027529;28;20049;-72
2022/03/11 06:50:57;;;;;;;15.80;10.57;;;;;;;;;;5026324;28;20060;-73
2022/03/11 06:53:26;;;;;;;14.85;8.27;;;;;;;;;;5028086;28;20041;-71
2022/03/11 06:55:53;;;;;;;18.85;10.50;;;;;;;;;;5027071;28;20041;-71
2022/03/11 06:58:18;;;;;;;16.77;11.15;;;;;;;;;;5023655;28;20037;-71
2022/03/11 07:00:44;;;;;;;26.75;10.68;;;;;;;;;;5028986;28;20183;-70
2022/03/11 07:03:10;;;;;;;9.07;6.72;;;;;;;;;;5024301;28;20081;-71
2022/03/11 07:05:36;;;;;;;11.43;6.88;;;;;;;;;;5017826;28;20041;-71
2022/03/11 07:08:02;;;;;;;14.85;6.32;;;;;;;;;;5027400;28;20063;-71
2022/03/11 07:10:28;;;;;;;7.55;4.80;;;;;;;;;;5009723;28;20107;-70
2022/03/11 07:12:54;;;;;;;15.02;9.27;;;;;;;;;;5027443;28;20103;-72
2022/03/11 07:15:20;;;;;;;13.57;8.93;;;;;;;;;;5027455;28;20038;-72
2022/03/11 07:17:46;;;;;;;18.15;10.52;;;;;;;;;;5026482;28;20037;-72
2022/03/11 07:20:12;;;;;;;6.15;5.53;;;;;;;;;;5009391;28;20075;-73
2022/03/11 07:22:39;;;;;;;15.85;9.65;;;;;;;;;;5027164;28;20573;-72
2022/03/11 07:25:05;;;;;;;16.48;9.73;;;;;;;;;;5007695;28;20582;-72
2022/03/11 07:27:31;;;;;;;16.23;10.82;;;;;;;;;;5026883;28;20069;-71
2022/03/11 07:29:58;;;;;;;10.52;6.10;;;;;;;;;;5027158;28;20060;-72
2022/03/11 07:32:24;;;;;;;20.80;10.32;;;;;;;;;;5025972;28;20230;-73
2022/03/11 07:34:49;;;;;;;15.55;8.57;;;;;;;;;;5009291;28;20095;-72
2022/03/11 07:37:15;;;;;;;10.75;5.10;;;;;;;;;;5008822;28;20034;-72
2022/03/11 07:39:42;;;;;;;12.00;7.75;;;;;;;;;;5026720;28;20104;-72
2022/03/11 07:42:08;;;;;;;14.13;6.68;;;;;;;;;;5026070;28;20050;-72
2022/03/11 07:44:33;;;;;;;5.47;4.97;;;;;;;;;;5026701;28;20056;-72
2022/03/11 07:46:59;;;;;;;12.10;7.13;;;;;;;;;;5027027;28;20625;-72
2022/03/11 07:49:27;;;;;;;11.45;6.93;;;;;;;;;;5026545;28;20133;-73
2022/03/11 07:51:53;;;;;;;14.98;7.60;;;;;;;;;;5027248;28;20065;-72
2022/03/11 07:54:20;;;;;;;16.48;9.32;;;;;;;;;;5032964;28;20045;-73
2022/03/11 07:56:45;;;;;;;12.52;8.90;;;;;;;;;;5016182;28;20033;-73
2022/03/11 07:59:11;;;;;;;21.65;9.75;;;;;;;;;;5033534;28;20049;-73
2022/03/11 08:01:37;;;;;;;16.88;10.00;;;;;;;;;;5030207;28;20129;-72
2022/03/11 08:04:04;;;;;;;15.57;8.68;;;;;;;;;;5005571;28;20580;-73
2022/03/11 08:06:30;;;;;;;20.08;9.45;;;;;;;;;;5033470;28;20130;-71
2022/03/11 08:08:56;;;;;;;15.07;8.32;;;;;;;;;;5033656;28;20065;-71
2022/03/11 08:11:22;;;;;;;17.08;8.52;;;;;;;;;;5033779;28;20151;-71
2022/03/11 08:13:48;;;;;;;13.27;7.68;;;;;;;;;;5015939;28;20095;-71
2022/03/11 08:16:15;;;;;;;14.85;6.75;;;;;;;;;;5032320;28;20516;-72
2022/03/11 08:18:42;;;;;;;14.52;7.40;;;;;;;;;;5033515;28;20540;-72
2022/03/11 08:21:12;;;;;;;21.05;9.35;;;;;;;;;;5033863;28;20116;-72
2022/03/11 08:23:39;;;;;;;11.85;5.07;;;;;;;;;;5015464;28;20112;-72
2022/03/11 08:26:05;;;;;;;16.98;9.52;;;;;;;;;;5033831;28;20118;-71
2022/03/11 08:28:32;;;;;;;20.65;9.48;;;;;;;;;;5014128;28;20468;-72
2022/03/11 08:30:57;;;;;;;14.27;7.82;;;;;;;;;;5033788;28;20060;-73
2022/03/11 08:33:24;;;;;;;12.63;7.93;;;;;;;;;;5033171;28;20040;-72
2022/03/11 08:35:50;;;;;;;8.30;7.18;;;;;;;;;;5033103;28;20555;-72
2022/03/11 08:38:16;;;;;;;14.77;6.88;;;;;;;;;;5015799;28;20045;-73
2022/03/11 08:40:42;;;;;;;13.32;7.18;;;;;;;;;;5033552;28;20044;-72
2022/03/11 08:43:09;;;;;;;13.88;8.30;;;;;;;;;;5033411;28;20037;-73
2022/03/11 08:45:35;;;;;;;21.58;9.60;;;;;;;;;;5033148;28;20087;-73
2022/03/11 08:48:01;;;;;;;14.90;8.15;;;;;;;;;;5033616;28;20057;-73
2022/03/11 08:50:27;;;;;;;17.88;8.45;;;;;;;;;;5014939;28;20068;-71
2022/03/11 08:52:54;;;;;;;20.60;8.55;;;;;;;;;;5015519;28;20068;-72
2022/03/11 08:55:20;;;;;;;7.60;5.38;;;;;;;;;;5033269;28;20497;-73
2022/03/11 08:57:50;;;;;;;15.52;7.93;;;;;;;;;;5033308;28;20033;-72
2022/03/11 09:00:16;;;;;;;9.20;5.72;;;;;;;;;;5033232;28;20049;-71
2022/03/11 09:02:43;;;;;;;16.10;7.57;;;;;;;;;;5033439;28;20050;-71
2022/03/11 09:05:09;;;;;;;9.60;6.13;;;;;;;;;;5031045;28;20107;-72
2022/03/11 09:07:37;;;;;;;14.15;6.65;;;;;;;;;;5030259;28;20088;-69
2022/03/11 09:10:03;;;;;;;10.13;6.80;;;;;;;;;;5030127;28;20148;-70
2022/03/11 09:12:29;;;;;;;18.88;9.32;;;;;;;;;;5028562;28;20041;-71
2022/03/11 09:14:55;;;;;;;13.90;6.55;;;;;;;;;;5029859;28;21534;-72
2022/03/11 09:17:21;;;;;;;13.52;6.40;;;;;;;;;;5030062;28;20456;-72
2022/03/11 09:19:47;;;;;;;10.65;4.90;;;;;;;;;;5029920;28;20041;-71
2022/03/11 09:22:13;;;;;;;10.48;5.88;;;;;;;;;;5030001;28;20061;-71
2022/03/11 09:24:42;;;;;;;12.43;7.18;;;;;;;;;;5030025;28;20081;-71
2022/03/11 09:27:09;;;;;;;20.55;7.80;;;;;;;;;;5012202;28;20037;-71
2022/03/11 09:29:35;;;;;;;21.83;8.05;;;;;;;;;;5029371;28;20049;-71
2022/03/11 09:32:01;;;;;;;13.23;6.72;;;;;;;;;;5029902;28;20564;-70
2022/03/11 09:34:27;;;;;;;13.02;8.02;;;;;;;;;;5028350;28;20045;-70
2022/03/11 09:36:53;;;;;;;15.60;8.73;;;;;;;;;;5011709;28;20472;-71
2022/03/11 09:39:20;;;;;;;10.30;6.70;;;;;;;;;;5032387;28;20520;-71
2022/03/11 09:41:46;;;;;;;21.38;9.40;;;;;;;;;;5029714;28;20103;-70
2022/03/11 09:44:13;;;;;;;13.63;7.88;;;;;;;;;;5008828;28;20068;-70
2022/03/11 09:46:40;;;;;;;24.85;8.38;;;;;;;;;;5028422;28;20152;-71
2022/03/11 09:49:05;;;;;;;18.05;8.38;;;;;;;;;;5011606;28;20045;-72
2022/03/11 09:51:32;;;;;;;26.48;8.73;;;;;;;;;;5029470;28;20532;-71
2022/03/11 09:53:58;;;;;;;16.20;7.07;;;;;;;;;;5028336;28;20042;-71
2022/03/11 09:56:24;;;;;;;8.73;7.20;;;;;;;;;;5029022;28;20040;-71
2022/03/11 09:58:50;;;;;;;18.63;8.20;;;;;;;;;;5028940;28;20045;-72
2022/03/11 10:01:16;;;;;;;13.85;7.03;;;;;;;;;;5010495;28;20042;-70
2022/03/11 10:03:42;;;;;;;17.05;8.18;;;;;;;;;;5027048;28;20068;-70
2022/03/11 10:06:08;;;;;;;14.65;8.23;;;;;;;;;;5029132;28;20046;-70
2022/03/11 10:08:35;;;;;;;15.45;9.43;;;;;;;;;;5010913;28;20033;-71
2022/03/11 10:11:24;;;;;;;9.43;5.95;;;;;;;;;;5029163;28;20061;-71
2022/03/11 10:13:51;;;;;;;18.35;8.88;;;;;;;;;;5020204;28;20045;-72
2022/03/11 10:16:17;;;;;;;12.55;7.00;;;;;;;;;;5025471;28;20048;-72
2022/03/11 10:19:06;;;;;;;8.30;6.13;;;;;;;;;;5027368;28;20501;-72
2022/03/11 10:21:34;;;;;;;13.15;4.65;;;;;;;;;;5027058;28;20517;-71
2022/03/11 10:24:01;;;;;;;14.02;8.23;;;;;;;;;;5008747;28;20124;-72
2022/03/11 10:26:36;;;;;;;12.10;8.05;;;;;;;;;;5028310;28;20041;-71
2022/03/11 10:29:03;;;;;;;15.55;7.53;;;;;;;;;;5028670;28;20057;-72
2022/03/11 10:31:30;;;;;;;12.68;6.55;;;;;;;;;;5026510;28;20045;-71
2022/03/11 10:34:10;;;;;;;17.75;7.03;;;;;;;;;;5027016;28;20092;-71
2022/03/11 10:36:36;;;;;;;7.20;4.18;;;;;;;;;;5027174;28;20073;-71
2022/03/11 10:39:15;;;;;;;11.95;6.07;;;;;;;;;;5028237;28;20940;-71
2022/03/11 10:41:41;;;;;;;13.65;7.30;;;;;;;;;;5024098;28;20460;-71
2022/03/11 10:44:11;;;;;;;4.93;3.55;;;;;;;;;;5027684;28;20041;-71
2022/03/11 10:46:36;;;;;;;4.35;3.70;;;;;;;;;;4994134;28;20045;-70
2022/03/11 10:49:02;;;;;;;3.58;2.97;;;;;;;;;;5028274;28;20060;-70
2022/03/11 10:51:30;;;;;;;2.55;2.17;;;;;;;;;;5028084;28;20536;-70
2022/03/11 10:53:59;;;;;;;3.58;3.20;;;;;;;;;;5028130;28;20050;-69
2022/03/11 10:56:33;;;;;;;5.03;3.40;;;;;;;;;;5026811;28;20096;-70
2022/03/11 10:58:59;;;;;;;3.42;3.13;;;;;;;;;;5030001;28;20052;-69
2022/03/11 11:01:36;;;;;;;13.02;3.20;;;;;;;;;;4992618;28;20034;-70
2022/03/11 11:04:03;;;;;;;6.63;3.88;;;;;;;;;;5028284;28;20053;-71
2022/03/11 11:06:31;;;;;;;3.90;3.20;;;;;;;;;;5010293;28;20033;-74
2022/03/11 11:08:57;;;;;;;7.40;3.42;;;;;;;;;;5010090;28;20056;-75
2022/03/11 11:11:23;;;;;;;3.60;3.22;;;;;;;;;;5025744;28;20104;-74
2022/03/11 11:13:49;;;;;;;7.03;3.85;;;;;;;;;;5027702;28;20049;-74
2022/03/11 11:16:17;;;;;;;4.38;3.60;;;;;;;;;;5009060;28;20041;-75
2022/03/11 11:18:46;;;;;;;4.95;2.97;;;;;;;;;;4993105;28;20101;-75
2022/03/11 11:21:14;;;;;;;;;;;;;;;;;;5028297;28;20033;-76
2022/03/11 11:23:40;;;;;;;5.07;3.05;;;;;;;;;;5026941;28;19913;-74
2022/03/11 11:26:10;;;;;;;5.30;4.45;;;;;;;;;;5009857;28;20064;-75
2022/03/11 11:28:36;;;;;;;5.35;3.88;;;;;;;;;;5024592;28;20136;-73
2022/03/11 11:31:01;;;;;;;7.47;3.55;;;;;;;;;;5009826;28;20594;-73
2022/03/11 11:33:29;;;;;;;10.15;4.38;;;;;;;;;;5027541;28;20045;-73
2022/03/11 11:36:01;;;;;;;4.97;4.43;;;;;;;;;;5009423;28;20049;-74
2022/03/11 11:38:28;;;;;;;14.00;5.07;;;;;;;;;;5025572;28;20040;-72
2022/03/11 11:40:55;;;;;;;13.05;4.20;;;;;;;;;;5028414;28;20045;-74
2022/03/11 11:43:27;;;;;;;4.15;3.40;;;;;;;;;;5030739;28;20052;-73
2022/03/11 11:45:56;;;;;;;14.77;4.90;;;;;;;;;;5027597;28;20034;-73
2022/03/11 11:48:35;;;;;;;9.65;4.15;;;;;;;;;;5022628;28;20045;-75
2022/03/11 11:51:04;;;;;;;5.88;4.93;;;;;;;;;;5027737;28;20461;-74
2022/03/11 11:53:40;;;;;;;20.77;5.50;;;;;;;;;;5025838;28;20124;-75
2022/03/11 11:56:25;;;;;;;6.60;4.20;;;;;;;;;;5010425;28;20091;-73
2022/03/11 11:58:51;;;;;;;5.00;4.05;;;;;;;;;;5021978;28;20589;-75
2022/03/11 12:01:36;;;;;;;7.50;4.40;;;;;;;;;;5027739;28;20032;-75
2022/03/11 12:04:21;;;;;;;6.55;3.88;;;;;;;;;;5026433;28;20064;-75
2022/03/11 12:07:00;;;;;;;3.63;3.33;;;;;;;;;;5010603;28;20100;-75
2022/03/11 12:09:39;;;;;;;2.83;2.58;;;;;;;;;;5027078;28;20053;-75
2022/03/11 12:12:05;;;;;;;2.47;2.28;;;;;;;;;;5027645;28;20045;-76
2022/03/11 12:14:31;;;;;;;4.65;3.25;;;;;;;;;;5024242;28;20053;-76
2022/03/11 12:17:01;;;;;;;3.55;1.77;;;;;;;;;;5027166;28;20061;-76
2022/03/11 12:19:44;;;;;;;7.25;3.28;;;;;;;;;;5008937;28;20034;-77
2022/03/11 12:22:29;;;;;;;2.55;2.10;;;;;;;;;;5025801;28;20045;-75
2022/03/11 12:25:00;;;;;;;3.25;2.65;;;;;;;;;;5013480;28;20064;-75
2022/03/11 12:27:44;;;;;;;3.17;2.97;;;;;;;;;;5028116;28;20036;-76
2022/03/11 12:30:10;;;;;;;3.58;3.28;;;;;;;;;;5023931;28;20053;-76
2022/03/11 12:32:38;;;;;;;10.35;3.15;;;;;;;;;;5031736;28;20099;-73
2022/03/11 12:35:05;;;;;;;3.22;2.83;;;;;;;;;;5026208;28;20508;-72
2022/03/11 12:37:32;;;;;;;10.20;2.92;;;;;;;;;;5027223;28;20041;-73
2022/03/11 12:39:58;;;;;;;3.75;3.45;;;;;;;;;;5028011;28;20053;-74
2022/03/11 12:42:37;;;;;;;4.05;2.58;;;;;;;;;;5033965;28;20401;-73
2022/03/11 12:45:03;;;;;;;6.55;3.15;;;;;;;;;;5013694;28;20038;-75
2022/03/11 12:47:36;;;;;;;4.93;3.30;;;;;;;;;;5029273;28;20038;-74
2022/03/11 12:50:04;;;;;;;6.00;3.67;;;;;;;;;;5028825;28;20068;-74
2022/03/11 12:52:39;;;;;;;3.85;3.10;;;;;;;;;;5029149;28;20117;-74
2022/03/11 12:55:41;;;;;;;6.28;3.00;;;;;;;;;;5030886;28;20464;-74
2022/03/11 12:58:11;;;;;;;2.28;2.17;;;;;;;;;;4968702;28;20102;-75
2022/03/11 13:00:38;;;;;;;2.85;1.98;;;;;;;;;;5008725;28;20045;-75
2022/03/11 13:03:06;;;;;;;3.90;2.85;;;;;;;;;;5030431;28;20172;-73
2022/03/11 13:05:32;;;;;;;3.22;2.22;;;;;;;;;;5028364;28;20049;-73
2022/03/11 13:08:02;;;;;;;3.35;3.05;;;;;;;;;;5030684;28;20041;-73
2022/03/11 13:10:28;;;;;;;2.42;2.22;;;;;;;;;;5028712;28;20099;-74
2022/03/11 13:12:55;;;;;;;5.63;3.15;;;;;;;;;;5029355;28;20116;-73
2022/03/11 13:15:23;;;;;;;13.90;3.55;;;;;;;;;;5012796;28;20041;-73
2022/03/11 13:17:51;;;;;;;6.88;3.35;;;;;;;;;;5029105;28;20045;-74
2022/03/11 13:20:27;;;;;;;8.32;3.08;;;;;;;;;;5026557;28;20041;-73
2022/03/11 13:22:52;;;;;;;6.95;3.20;;;;;;;;;;5030047;28;20069;-73
2022/03/11 13:25:38;;;;;;;3.45;3.15;;;;;;;;;;5012247;28;20046;-74
2022/03/11 13:28:04;;;;;;;5.25;3.20;;;;;;;;;;5008922;28;20139;-75
2022/03/11 13:30:39;;;;;;;6.90;3.65;;;;;;;;;;5029396;28;20055;-74
2022/03/11 13:33:24;;;;;;;7.03;2.75;;;;;;;;;;5030166;28;20104;-74
2022/03/11 13:36:03;;;;;;;4.30;2.95;;;;;;;;;;5027514;28;20196;-74
2022/03/11 13:38:31;;;;;;;2.63;2.20;;;;;;;;;;5027810;28;20084;-74
2022/03/11 13:40:57;;;;;;;2.45;2.22;;;;;;;;;;5029707;28;20565;-74
2022/03/11 13:43:23;;;;;;;4.93;2.88;;;;;;;;;;5029561;28;20119;-73
2022/03/11 13:45:51;;;;;;;4.68;2.80;;;;;;;;;;5029148;28;20085;-73
2022/03/11 13:48:17;;;;;;;2.63;2.42;;;;;;;;;;5028290;28;20063;-73
2022/03/11 13:50:42;;;;;;;2.78;2.58;;;;;;;;;;5010969;28;20054;-73
2022/03/11 13:53:08;;;;;;;5.10;3.15;;;;;;;;;;5029752;28;20044;-75
2022/03/11 13:55:38;;;;;;;2.58;2.42;;;;;;;;;;5029037;28;20131;-74
2022/03/11 13:58:23;;;;;;;4.43;3.22;;;;;;;;;;5027410;28;20041;-72
2022/03/11 14:00:49;;;;;;;2.90;2.67;;;;;;;;;;5005697;28;20042;-74
2022/03/11 14:03:16;;;;;;;4.65;3.00;;;;;;;;;;5026836;28;20053;-74
2022/03/11 14:05:43;;;;;;;4.47;3.72;;;;;;;;;;5030338;28;20593;-74
2022/03/11 14:08:10;;;;;;;3.67;3.13;;;;;;;;;;5011891;28;20041;-74
2022/03/11 14:10:36;;;;;;;5.70;3.20;;;;;;;;;;5028911;28;20604;-73
2022/03/11 14:13:06;;;;;;;3.90;3.10;;;;;;;;;;5012762;28;20060;-74
2022/03/11 14:15:39;;;;;;;3.22;2.90;;;;;;;;;;5030872;28;20041;-74
2022/03/11 14:18:08;;;;;;;3.95;3.22;;;;;;;;;;5027884;28;20036;-72
2022/03/11 14:20:34;;;;;;;4.00;3.58;;;;;;;;;;5027003;28;20052;-74
2022/03/11 14:23:00;;;;;;;5.50;3.63;;;;;;;;;;5029588;28;20041;-74
2022/03/11 14:25:27;;;;;;;5.03;4.03;;;;;;;;;;5029113;28;20464;-72
2022/03/11 14:27:54;;;;;;;8.75;3.65;;;;;;;;;;5011685;28;20037;-75
2022/03/11 14:30:22;;;;;;;5.78;4.05;;;;;;;;;;5029084;28;20053;-73
2022/03/11 14:32:51;;;;;;;8.73;4.05;;;;;;;;;;5028940;28;20041;-73
2022/03/11 14:35:17;;;;;;;5.10;3.40;;;;;;;;;;5027415;28;20075;-73
2022/03/11 14:37:43;;;;;;;6.32;3.95;;;;;;;;;;5010620;28;20084;-73